createdAt,value
2022-09-02T00:00:00.492Z,70.20
2022-09-02T00:02:31.718Z,69.10
2022-09-02T00:05:00.019Z,68.80
2022-09-02T00:07:27.922Z,68.50
2022-09-02T00:09:56.070Z,67.90
2022-09-02T00:12:24.252Z,67.60
2022-09-02T00:14:52.231Z,67.20
2022-09-02T00:17:20.174Z,66.50
2022-09-02T00:19:51.030Z,68.20
2022-09-02T00:22:23.092Z,68.20
2022-09-02T00:24:51.135Z,68.00
2022-09-02T00:27:19.461Z,67.80
2022-09-02T00:29:47.716Z,68.50
2022-09-02T00:32:16.515Z,69.10
2022-09-02T00:34:45.225Z,68.50
2022-09-02T00:37:13.821Z,67.70
2022-09-02T00:39:42.012Z,67.00
2022-09-02T00:42:10.246Z,68.50
2022-09-02T00:44:38.631Z,67.90
2022-09-02T00:47:06.770Z,67.50
2022-09-02T00:49:38.797Z,67.00
2022-09-02T00:52:12.422Z,67.70
2022-09-02T00:54:59.760Z,68.50
2022-09-02T00:57:32.660Z,68.40
2022-09-02T01:00:11.763Z,67.30
2022-09-02T01:02:42.212Z,66.90
2022-09-02T01:05:13.526Z,68.00
2022-09-02T01:07:43.590Z,67.60
2022-09-02T01:10:20.480Z,67.10
2022-09-02T01:12:49.686Z,66.30
2022-09-02T01:15:17.764Z,67.70
2022-09-02T01:17:49.726Z,67.60
2022-09-02T01:20:25.424Z,66.80
2022-09-02T01:22:55.315Z,66.80
2022-09-02T01:25:28.043Z,67.60
2022-09-02T01:28:05.251Z,67.30
2022-09-02T01:30:34.726Z,66.40
2022-09-02T01:33:02.690Z,67.60
2022-09-02T01:35:31.366Z,67.50
2022-09-02T01:38:00.012Z,66.70
2022-09-02T01:40:30.475Z,66.90
2022-09-02T01:43:02.707Z,67.50
2022-09-02T01:45:31.005Z,67.10
2022-09-02T01:47:59.153Z,66.20
2022-09-02T01:50:27.965Z,66.60
2022-09-02T01:52:56.361Z,67.20
2022-09-02T01:55:24.589Z,66.50
2022-09-02T01:57:52.746Z,66.10
2022-09-02T02:00:21.506Z,67.50
2022-09-02T02:02:49.601Z,67.00
2022-09-02T02:05:19.074Z,66.20
2022-09-02T02:07:50.192Z,66.70
2022-09-02T02:10:20.971Z,67.10
2022-09-02T02:12:50.807Z,66.50
2022-09-02T02:17:50.660Z,67.60
2022-09-02T02:20:20.844Z,67.00
2022-09-02T02:22:49.407Z,66.40
2022-09-02T02:25:19.166Z,67.80
2022-09-02T02:27:51.994Z,67.60
2022-09-02T02:30:24.181Z,66.90
2022-09-02T02:32:55.338Z,68.30
2022-09-02T02:35:26.711Z,68.20
2022-09-02T02:37:55.432Z,67.80
2022-09-02T02:40:26.043Z,68.60
2022-09-02T02:42:55.185Z,68.80
2022-09-02T02:45:26.886Z,68.20
2022-09-02T02:47:55.146Z,68.30
2022-09-02T02:50:26.286Z,68.60
2022-09-02T02:52:55.268Z,68.00
2022-09-02T02:55:26.916Z,68.30
2022-09-02T02:57:57.326Z,68.90
2022-09-02T03:00:29.212Z,68.00
2022-09-02T03:03:09.677Z,67.60
2022-09-02T03:05:39.992Z,68.70
2022-09-02T03:08:10.134Z,68.10
2022-09-02T03:10:41.595Z,67.40
2022-09-02T03:13:11.563Z,69.00
2022-09-02T03:15:40.608Z,68.70
2022-09-02T03:18:09.049Z,68.20
2022-09-02T03:20:37.674Z,69.80
2022-09-02T03:23:09.475Z,69.90
2022-09-02T03:25:44.530Z,69.20
2022-09-02T03:28:39.816Z,71.00
2022-09-02T03:31:15.688Z,72.10
2022-09-02T03:33:44.548Z,73.40
2022-09-02T03:36:23.656Z,74.20
2022-09-02T03:38:55.950Z,75.00
2022-09-02T03:41:24.605Z,75.90
2022-09-02T03:43:55.010Z,76.10
2022-09-02T03:46:23.256Z,76.70
2022-09-02T03:48:52.244Z,76.80
2022-09-02T03:51:23.852Z,76.90
2022-09-02T03:53:52.772Z,77.20
2022-09-02T03:56:21.349Z,77.40
2022-09-02T03:58:52.516Z,77.40
2022-09-02T04:01:27.510Z,77.70
2022-09-02T04:03:57.749Z,78.00
2022-09-02T04:06:32.398Z,78.50
2022-09-02T04:09:03.601Z,78.40
2022-09-02T04:11:33.672Z,78.50
2022-09-02T04:14:02.111Z,78.70
2022-09-02T04:16:31.656Z,78.70
2022-09-02T04:19:06.009Z,79.40
2022-09-02T04:21:37.120Z,80.00
2022-09-02T04:24:07.665Z,80.20
2022-09-02T04:26:37.942Z,80.40
2022-09-02T04:29:16.976Z,80.10
2022-09-02T04:31:49.664Z,80.60
2022-09-02T04:34:19.007Z,80.90
2022-09-02T04:36:50.130Z,81.20
2022-09-02T04:39:20.772Z,81.30
2022-09-02T04:41:51.431Z,81.10
2022-09-02T04:44:20.011Z,81.10
2022-09-02T04:46:50.367Z,81.60
2022-09-02T04:49:21.134Z,81.40
2022-09-02T04:51:54.414Z,81.40
2022-09-02T04:54:24.821Z,81.60
2022-09-02T04:56:53.916Z,81.30
2022-09-02T04:59:23.822Z,82.30
2022-09-02T05:02:05.340Z,81.60
2022-09-02T05:04:34.060Z,81.30
2022-09-02T05:07:02.986Z,81.50
2022-09-02T05:09:34.593Z,81.60
2022-09-02T05:12:06.549Z,81.60
2022-09-02T05:14:43.951Z,82.30
2022-09-02T05:17:12.652Z,82.50
2022-09-02T05:19:43.666Z,82.30
2022-09-02T05:22:12.202Z,82.20
2022-09-02T05:24:43.558Z,82.30
2022-09-02T05:27:16.648Z,83.00
2022-09-02T05:29:47.421Z,82.90
2022-09-02T05:32:19.612Z,82.80
2022-09-02T05:34:50.483Z,82.40
2022-09-02T05:37:18.820Z,82.00
2022-09-02T05:39:48.138Z,81.90
2022-09-02T05:42:20.254Z,81.40
2022-09-02T05:44:50.922Z,81.10
2022-09-02T05:47:25.726Z,81.20
2022-09-02T05:49:54.761Z,81.20
2022-09-02T05:52:24.416Z,81.20
2022-09-02T05:54:55.751Z,81.00
2022-09-02T05:57:25.901Z,81.00
2022-09-02T06:00:00.610Z,80.70
2022-09-02T06:02:42.986Z,80.00
2022-09-02T06:05:39.899Z,79.90
2022-09-02T06:08:29.348Z,79.30
2022-09-02T06:10:57.457Z,79.10
2022-09-02T06:13:29.209Z,78.90
2022-09-02T06:15:58.686Z,78.30
2022-09-02T06:18:30.744Z,78.60
2022-09-02T06:21:00.021Z,78.20
2022-09-02T06:23:38.483Z,77.90
2022-09-02T06:26:12.869Z,78.10
2022-09-02T06:28:43.815Z,77.30
2022-09-02T06:31:15.851Z,77.20
2022-09-02T06:33:46.556Z,77.00
2022-09-02T06:36:19.721Z,77.30
2022-09-02T06:38:50.228Z,76.20
2022-09-02T06:41:23.736Z,76.20
2022-09-02T06:43:55.499Z,76.30
2022-09-02T06:46:30.721Z,76.20
2022-09-02T06:49:01.635Z,75.80
2022-09-02T06:51:38.507Z,75.40
2022-09-02T06:54:09.434Z,75.40
2022-09-02T06:56:39.659Z,74.90
2022-09-02T06:59:09.534Z,75.80
2022-09-02T07:01:54.417Z,75.60
2022-09-02T14:49:55.929Z,64.40
2022-09-02T14:52:30.124Z,64.90
2022-09-02T14:54:59.836Z,66.00
2022-09-02T14:57:36.121Z,65.60
2022-09-02T15:00:14.523Z,66.40
2022-09-02T15:02:48.121Z,66.80
2022-09-02T15:05:17.409Z,69.00
2022-09-02T15:07:47.041Z,69.70
2022-09-02T15:10:15.221Z,67.60
2022-09-02T15:12:51.880Z,68.00
2022-09-02T15:15:20.540Z,66.70
2022-09-02T15:17:48.429Z,67.30
2022-09-02T15:20:17.129Z,63.70
2022-09-02T15:22:45.928Z,65.70
2022-09-02T15:25:14.732Z,65.00
2022-09-02T15:27:42.833Z,67.00
2022-09-02T15:30:11.601Z,65.80
2022-09-02T15:32:39.811Z,66.90
2022-09-02T15:35:09.811Z,66.00
2022-09-02T15:37:38.711Z,65.10
2022-09-02T15:40:09.244Z,64.00
2022-09-02T15:42:39.139Z,64.50
2022-09-02T15:45:11.832Z,64.70
2022-09-02T15:47:40.144Z,64.30
2022-09-02T15:50:08.429Z,62.60
2022-09-02T15:52:37.276Z,63.20
2022-09-02T15:55:06.251Z,64.00
2022-09-02T15:57:34.516Z,64.60
2022-09-02T16:00:02.531Z,64.30
2022-09-02T16:02:39.415Z,66.40
2022-09-02T16:05:08.251Z,65.90
2022-09-02T16:07:39.234Z,68.80
2022-09-02T16:10:09.603Z,69.10
2022-09-02T16:12:41.129Z,69.30
2022-09-02T16:15:10.338Z,70.90
2022-09-02T16:17:38.373Z,71.10
2022-09-02T16:20:07.359Z,70.30
2022-09-02T16:22:35.454Z,70.70
2022-09-02T16:25:03.760Z,70.30
2022-09-02T16:27:50.003Z,69.30
2022-09-02T16:30:18.694Z,69.30
2022-09-02T16:32:48.239Z,70.30
2022-09-02T16:35:16.380Z,71.10
2022-09-02T16:37:45.303Z,70.80
2022-09-02T16:40:21.812Z,72.20
2022-09-02T16:42:50.718Z,72.40
2022-09-02T16:45:20.449Z,73.60
2022-09-02T16:47:48.675Z,74.10
2022-09-02T16:50:16.709Z,76.20
2022-09-02T16:52:44.990Z,76.50
2022-09-02T16:55:18.299Z,77.00
2022-09-02T16:57:46.527Z,78.00
2022-09-02T17:00:15.503Z,78.80
2022-09-02T17:02:44.355Z,78.70
2022-09-02T17:05:14.846Z,79.90
2022-09-02T17:07:43.277Z,80.60
2022-09-02T17:10:11.859Z,80.80
2022-09-02T17:12:43.043Z,80.90
2022-09-02T17:15:11.947Z,81.20
2022-09-02T17:17:40.719Z,81.80
2022-09-02T17:20:09.414Z,82.60
2022-09-02T17:22:37.659Z,83.70
2022-09-02T17:25:06.391Z,84.40
2022-09-02T17:27:36.713Z,84.90
2022-09-02T17:30:09.301Z,84.40
2022-09-02T17:32:39.303Z,84.80
2022-09-02T17:35:12.439Z,84.90
2022-09-02T17:37:41.627Z,85.40
2022-09-02T17:40:31.001Z,86.40
2022-09-02T17:42:59.472Z,86.70
2022-09-02T17:45:27.393Z,86.60
2022-09-02T17:47:55.647Z,87.10
2022-09-02T17:50:23.594Z,87.50
2022-09-02T17:52:51.836Z,88.00
2022-09-02T17:55:20.374Z,88.40
2022-09-02T17:57:51.357Z,88.70
2022-09-02T18:00:23.171Z,88.90
2022-09-02T18:03:02.538Z,89.20
2022-09-02T18:05:56.145Z,89.50
2022-09-02T18:08:48.113Z,89.90
2022-09-02T18:11:16.542Z,90.00
2022-09-02T18:14:04.153Z,90.10
2022-09-02T18:16:55.762Z,90.00
2022-09-02T18:19:36.928Z,90.10
2022-09-02T18:22:35.978Z,90.30
2022-09-02T18:25:16.951Z,90.40
2022-09-02T18:28:26.434Z,90.70
2022-09-02T18:31:23.151Z,91.10
2022-09-02T18:33:59.564Z,91.40
2022-09-02T18:36:40.422Z,91.70
2022-09-02T18:39:24.903Z,91.80
2022-09-02T18:42:33.115Z,91.90
2022-09-02T18:45:34.864Z,92.30
2022-09-02T18:48:12.133Z,92.40
2022-09-02T18:50:51.437Z,92.60
2022-09-02T18:53:32.005Z,92.80
2022-09-02T18:56:11.156Z,92.90
2022-09-02T18:58:47.909Z,93.00
2022-09-02T19:01:35.953Z,93.10
2022-09-02T19:04:04.327Z,93.30
2022-09-02T19:06:37.086Z,93.20
2022-09-02T19:09:08.336Z,93.30
2022-09-02T19:11:38.911Z,93.50
2022-09-02T19:14:09.888Z,93.70
2022-09-02T19:16:39.434Z,93.90
2022-09-02T19:19:07.428Z,94.00
2022-09-02T19:21:49.193Z,94.00
2022-09-02T19:24:24.359Z,94.10
2022-09-02T19:27:04.161Z,94.30
2022-09-02T19:29:37.525Z,94.30
2022-09-02T19:32:06.796Z,94.30
2022-09-02T19:34:38.024Z,94.00
2022-09-02T19:37:07.557Z,93.90
2022-09-02T19:39:36.818Z,93.90
2022-09-02T19:42:08.045Z,93.90
2022-09-02T19:44:36.188Z,94.10
2022-09-02T19:47:49.897Z,94.20
2022-09-02T19:49:52.754Z,94.20
2022-09-02T19:52:21.280Z,94.30
2022-09-02T19:54:49.915Z,94.40
2022-09-02T19:57:18.064Z,94.40
2022-09-02T19:59:46.330Z,94.60
2022-09-02T20:02:15.685Z,94.80
2022-09-02T20:04:45.037Z,94.90
2022-09-02T20:07:12.989Z,94.90
2022-09-02T20:09:41.966Z,94.90
2022-09-02T20:12:10.121Z,94.90
2022-09-02T20:14:38.535Z,94.90
2022-09-02T20:17:18.712Z,95.00
2022-09-02T20:19:47.492Z,94.90
2022-09-02T20:22:18.743Z,94.90
2022-09-02T20:24:46.973Z,94.90
2022-09-02T20:27:45.933Z,95.40
2022-09-02T20:30:17.980Z,95.50
2022-09-02T20:33:00.571Z,95.70
2022-09-02T20:35:45.472Z,95.90
2022-09-02T20:38:22.109Z,95.70
2022-09-02T20:41:09.475Z,95.30
2022-09-02T20:44:13.717Z,95.10
2022-09-02T20:46:57.001Z,95.10
2022-09-02T20:50:06.916Z,95.10
2022-09-02T20:52:38.264Z,95.00
2022-09-02T20:55:29.506Z,95.30
2022-09-02T20:58:17.240Z,95.40
2022-09-02T21:01:11.518Z,95.60
2022-09-02T21:04:00.553Z,95.80
2022-09-02T21:06:37.237Z,95.90
2022-09-02T21:09:36.913Z,96.10
2022-09-02T21:12:37.365Z,96.10
2022-09-02T21:15:08.673Z,96.10
2022-09-02T21:17:51.160Z,96.10
2022-09-02T21:20:46.864Z,96.30
2022-09-02T21:23:28.906Z,96.40
2022-09-02T21:26:00.603Z,96.30
2022-09-02T21:29:05.319Z,96.50
2022-09-02T21:31:37.317Z,96.30
2022-09-02T21:34:43.520Z,96.20
2022-09-02T21:37:13.845Z,96.20
2022-09-02T21:39:50.812Z,96.30
2022-09-02T21:42:39.287Z,96.20
2022-09-02T21:45:18.562Z,96.20
2022-09-02T21:47:52.362Z,96.20
2022-09-02T21:50:48.337Z,96.30
2022-09-02T21:53:36.526Z,96.20
2022-09-02T21:56:17.720Z,96.30
2022-09-02T21:59:23.588Z,96.30
2022-09-02T22:02:04.055Z,96.20
2022-09-02T22:04:50.375Z,96.30
2022-09-02T22:07:39.591Z,96.30
2022-09-02T22:10:33.734Z,96.40
2022-09-02T22:13:04.050Z,96.50
2022-09-02T22:15:59.937Z,96.50
2022-09-02T22:18:34.361Z,96.70
2022-09-02T22:21:29.490Z,96.00
2022-09-02T22:23:59.825Z,94.70
2022-09-02T22:26:41.701Z,93.30
2022-09-02T22:29:29.177Z,91.80
2022-09-02T22:32:01.130Z,90.70
2022-09-02T22:34:34.366Z,89.20
2022-09-02T22:37:10.178Z,87.50
2022-09-02T22:39:46.706Z,85.80
2022-09-02T22:42:42.132Z,84.50
2022-09-02T22:45:39.930Z,83.20
2022-09-02T22:48:46.161Z,82.40
2022-09-02T22:51:42.527Z,85.00
2022-09-02T22:54:10.737Z,86.50
2022-09-02T22:57:14.481Z,88.00
2022-09-02T22:59:49.160Z,89.10
2022-09-02T23:03:01.972Z,90.30
2022-09-02T23:05:45.549Z,90.50
2022-09-02T23:08:16.325Z,90.30
2022-09-02T23:10:57.777Z,90.30
2022-09-02T23:13:54.238Z,90.40
2022-09-02T23:16:47.101Z,90.60
2022-09-02T23:19:36.704Z,90.70
2022-09-02T23:22:37.147Z,90.60
2022-09-02T23:25:38.392Z,90.60
2022-09-02T23:28:15.878Z,90.80
2022-09-02T23:30:49.783Z,90.90
2022-09-02T23:33:20.990Z,91.00
2022-09-02T23:36:25.794Z,91.00
2022-09-02T23:39:34.867Z,91.20
2022-09-02T23:42:04.687Z,91.20
2022-09-02T23:44:32.758Z,91.20
2022-09-02T23:47:38.438Z,91.10
2022-09-02T23:50:31.387Z,91.10
2022-09-02T23:53:22.850Z,91.10
2022-09-02T23:56:15.858Z,91.30
2022-09-02T23:59:22.942Z,91.30
